This is the latest recevied weather packets stored in our database for station/object KF7OVD-WX. If no packets are shown the sender has not sent any weather packets the latest 10 day(s).
| Time | Temp. | Humidity | Pressure | Rain* | Wind** | Luminosity | Snow |
|---|---|---|---|---|---|---|---|
| 1777996827 | 14.44° C | 46% | 1015.6 hPa | 0 mm | - | - | - |
| 1777996243 | 13.89° C | 47% | 1015.5 hPa | 0 mm | - | - | - |
| 1777995941 | 13.89° C | 46% | 1015.5 hPa | 0 mm | - | - | - |
| 1777995021 | 13.33° C | 49% | 1015.5 hPa | 0 mm | - | - | - |
| 1777994133 | 12.78° C | 49% | 1015.7 hPa | 0 mm | - | - | - |
| 1777992320 | 11.67° C | 51% | 1015.9 hPa | 0 mm | - | - | - |
| 1777988428 | 7.78° C | 62% | 1015.5 hPa | 0 mm | - | - | - |
| 1777987220 | 5° C | 69% | 1015.2 hPa | 0 mm | - | - | - |
| 1777986320 | 4.44° C | 69% | 1015.2 hPa | 0 mm | - | - | - |
| 1777984224 | 4.44° C | 66% | 1015.1 hPa | 0 mm | - | - | - |
| 1777983620 | 5° C | 64% | 1015 hPa | 0 mm | - | - | - |
| 1777981524 | 6.11° C | 62% | 1015.1 hPa | 0 mm | - | - | - |
| 1777979427 | 5° C | 64% | 1015 hPa | 0 mm | - | - | - |
| 1777977614 | 6.67° C | 57% | 1014.6 hPa | 0 mm | - | - | - |
| 1777975827 | 7.78° C | 54% | 1014.5 hPa | 0 mm | - | - | - |
| 1777974922 | 7.78° C | 54% | 1014.6 hPa | 0 mm | - | - | - |
| 1777974620 | 7.78° C | 54% | 1014.6 hPa | 0 mm | - | - | - |
| 1777973430 | 8.33° C | 53% | 1014.6 hPa | 0 mm | - | - | - |
| 1777971618 | 8.33° C | 53% | 1014.9 hPa | 0 mm | - | - | - |
| 1777970428 | 8.89° C | 52% | 1015.1 hPa | 0 mm | - | - | - |
| 1777969824 | 8.89° C | 52% | 1015.1 hPa | 0 mm | - | - | - |
| 1777966830 | 9.44° C | 50% | 1015.3 hPa | 0 mm | - | - | - |
| 1777966528 | 9.44° C | 49% | 1015.2 hPa | 0 mm | - | - | - |
| 1777963850 | 10° C | 46% | 1015 hPa | 0 mm | - | - | - |
| 1777963528 | 9.44° C | 46% | 1015.1 hPa | 0 mm | - | - | - |
* Rain latest hour (hover to see other rain measurements)
** Current wind speed in m/s (hover to see current wind gust speed)